Главная страница
METAR-TAF:

METAR-TAF

Аэропорты :

Сённерборг, Дания

широта: 54-58N, долгота: 009-47E, высота над уровнем моря: 7 м

Текущие метеонаблюдения

Эта сводка был подготовлена 17 минут назад, в 19:20 UTC
Ветер 6 Узел от южный, изменяющийся между юго-восточный и южный-юго-западный
Температура 5°C
Влажность 81%
Давление 1006 hPa
Видимость 10 км и более
небольшая облачность на высоте 2500 фута
Рассеянная облачность на высоте 13000 фута

METAR: EKSB 281920Z 17006KT 140V210 9999 FEW025 BKN130 05/02 Q1006

Время: 20:37 (19:37 UTC)

Прогноз

Эта сводка был подготовлена 1 час и 46 минут назад, в 17:51 UTC
Прогноз действительный с 28-го 18 UTC до 28-го 23 UTC
Ветер 7 Узел от южный
Видимость 10 км и более
Отдельные облака на высоте 2000 фута
изменения
С 28-го 22 UTC до 28-го 23 UTC
Ветер 15 Узел от южный с порывами до 25 Узел

TAF: EKSB 281751Z 2818/2823 18007KT 9999 SCT020 BECMG 2822/2823 18015G25KT

Метеонаблюдения и прогнозы для более 4000 аэропортов (сводки METAR и TAF).

Имеющиеся станции представлены на карте желтыми и красными точками.

Чтобы увидеть название станции, наведите на нее мышь.

Затем щелкните, чтобы увидеть метеонаблюдения и метеопрогнозы.

Управление картой: чтобы увеличить масштаб, щелкните зеленые кнопки с черным крестиком; чтобы уменьшить масштаб, щелкните зеленую кнопку с тире; для просмотра соседних карт щелкайте зеленые стрелки.


METAR-TAF: